Millersville, Pennsylvania
Current Conditions -  °F | °C
As of 4:53 PM on Wednesday 22 Oct 2014 (Local Time) from KLNS Reporting Station
Overcast Overcast  
Wind Chill: 54°   Ceiling: 2700
Heat Index: 54°   Visibility: 10mi
Dew Point: 46°   Wind: 18mph
Humidity: 75%   Direction: 350°N
Pressure: 29.92"   Gusts: 29mph
Location:  40°N, 76.36°W
Report Text: KLNS 222053Z 35016G25KT 10SM BKN027 OVC037 12/08 A2992 RMK AO2 SLP131 T01220078 56003
Loading
Personal Weather Stations






























Interactive Weather Map
Tropical Storm Tracking
New forecast layout! Learn more

10-Day Weather Forecast

Advertisements
Track Severe Weather on mobile